createdAt,value
2018-05-13T00:01:48.913Z,81.12
2018-05-13T00:04:17.169Z,80.80
2018-05-13T00:06:45.430Z,81.38
2018-05-13T00:09:14.475Z,80.95
2018-05-13T00:11:42.781Z,80.85
2018-05-13T00:14:11.098Z,80.84
2018-05-13T00:16:39.470Z,81.31
2018-05-13T00:19:07.720Z,81.39
2018-05-13T00:21:36.733Z,83.04
2018-05-13T00:24:05.030Z,84.00
2018-05-13T00:26:33.345Z,82.88
2018-05-13T00:29:01.599Z,82.48
2018-05-13T00:31:29.946Z,82.16
2018-05-13T00:33:58.230Z,81.68
2018-05-13T00:36:26.478Z,82.23
2018-05-13T00:38:55.533Z,81.87
2018-05-13T00:41:23.812Z,82.35
2018-05-13T00:43:52.109Z,82.52
2018-05-13T00:46:20.509Z,82.63
2018-05-13T00:48:49.627Z,82.87
2018-05-13T00:51:17.906Z,82.81
2018-05-13T00:53:46.213Z,83.03
2018-05-13T00:56:14.560Z,83.79
2018-05-13T00:58:42.802Z,83.06
2018-05-13T01:01:11.841Z,83.82
2018-05-13T01:03:40.097Z,83.13
2018-05-13T01:06:08.361Z,83.82
2018-05-13T01:08:37.486Z,83.73
2018-05-13T01:11:05.763Z,84.12
2018-05-13T01:13:34.029Z,83.97
2018-05-13T01:16:02.310Z,83.81
2018-05-13T01:18:30.574Z,84.22
2018-05-13T01:20:58.857Z,84.30
2018-05-13T01:23:27.131Z,84.54
2018-05-13T01:25:55.463Z,84.05
2018-05-13T01:28:23.716Z,84.45
2018-05-13T01:30:52.089Z,85.10
2018-05-13T01:33:20.510Z,84.56
2018-05-13T01:35:48.824Z,84.71
2018-05-13T01:38:17.086Z,84.67
2018-05-13T01:40:46.198Z,84.73
2018-05-13T01:43:14.626Z,84.59
2018-05-13T01:45:42.957Z,84.20
2018-05-13T01:48:11.269Z,84.77
2018-05-13T01:50:39.603Z,84.61
2018-05-13T01:53:07.879Z,84.33
2018-05-13T01:55:36.128Z,84.31
2018-05-13T01:58:05.153Z,84.21
2018-05-13T02:00:33.428Z,84.45
2018-05-13T02:03:01.708Z,85.34
2018-05-13T02:05:29.962Z,85.57
2018-05-13T02:07:58.985Z,85.75
2018-05-13T02:10:27.236Z,85.79
2018-05-13T02:12:55.488Z,86.48
2018-05-13T02:15:23.762Z,86.70
2018-05-13T02:17:52.004Z,87.05
2018-05-13T02:20:20.265Z,87.06
2018-05-13T02:22:48.532Z,86.74
2018-05-13T02:25:16.777Z,87.08
2018-05-13T02:27:46.777Z,87.45
2018-05-13T02:30:15.180Z,87.53
2018-05-13T02:32:44.227Z,87.39
2018-05-13T02:35:12.584Z,88.18
2018-05-13T02:37:40.945Z,88.34
2018-05-13T02:40:09.221Z,88.35
2018-05-13T02:42:37.510Z,88.20
2018-05-13T02:45:05.780Z,88.18
2018-05-13T02:47:34.080Z,88.04
2018-05-13T02:50:02.333Z,87.71
2018-05-13T02:52:30.639Z,87.68
2018-05-13T02:54:58.896Z,87.07
2018-05-13T02:57:27.144Z,86.95
2018-05-13T02:59:56.192Z,86.95
2018-05-13T03:02:24.457Z,87.53
2018-05-13T03:04:52.715Z,87.92
2018-05-13T03:07:20.991Z,88.58
2018-05-13T03:09:49.251Z,88.40
2018-05-13T03:12:17.519Z,88.70
2018-05-13T03:14:46.631Z,88.98
2018-05-13T03:17:14.891Z,88.86
2018-05-13T03:19:43.909Z,89.19
2018-05-13T03:22:12.172Z,88.76
2018-05-13T03:24:40.462Z,88.97
2018-05-13T03:27:08.741Z,88.83
2018-05-13T03:29:37.012Z,88.93
2018-05-13T03:32:05.269Z,88.66
2018-05-13T03:34:33.533Z,88.85
2018-05-13T03:37:02.564Z,88.95
2018-05-13T03:39:30.838Z,88.71
2018-05-13T03:41:59.105Z,88.31
2018-05-13T03:44:27.386Z,87.46
2018-05-13T03:46:55.668Z,89.00
2018-05-13T03:49:23.913Z,89.38
2018-05-13T03:51:53.028Z,89.75
2018-05-13T03:54:21.293Z,89.90
2018-05-13T03:56:49.553Z,89.86
2018-05-13T03:59:18.588Z,89.31
2018-05-13T04:01:46.841Z,88.81
2018-05-13T04:04:15.097Z,89.32
2018-05-13T04:06:44.123Z,88.89
2018-05-13T04:09:30.984Z,88.60
2018-05-13T04:12:17.095Z,88.32
2018-05-13T04:18:12.381Z,88.17
2018-05-13T04:20:40.639Z,88.00
2018-05-13T04:23:08.929Z,88.00
2018-05-13T04:25:37.241Z,89.06
2018-05-13T04:28:05.515Z,88.37
2018-05-13T04:30:33.850Z,88.45
2018-05-13T04:33:02.213Z,87.80
2018-05-13T04:35:30.497Z,87.56
2018-05-13T04:37:58.754Z,87.87
2018-05-13T04:40:27.873Z,87.33
2018-05-13T04:42:56.157Z,87.12
2018-05-13T04:45:24.436Z,86.59
2018-05-13T04:47:52.796Z,86.88
2018-05-13T04:50:21.070Z,86.31
2018-05-13T04:52:49.360Z,86.11
2018-05-13T04:55:17.637Z,86.09
2018-05-13T04:57:45.905Z,85.78
2018-05-13T05:00:14.184Z,85.54
2018-05-13T05:02:42.445Z,84.07
2018-05-13T05:05:10.738Z,83.89
2018-05-13T05:07:38.988Z,83.72
2018-05-13T05:10:08.101Z,83.03
2018-05-13T05:12:36.365Z,82.20
2018-05-13T05:15:05.386Z,82.24
2018-05-13T05:17:33.663Z,82.17
2018-05-13T05:20:01.938Z,81.89
2018-05-13T05:22:30.184Z,81.81
2018-05-13T05:24:59.224Z,81.57
2018-05-13T05:27:27.478Z,81.47
2018-05-13T05:29:55.780Z,80.93
2018-05-13T05:32:24.121Z,80.71
2018-05-13T05:34:52.413Z,79.92
2018-05-13T05:37:20.657Z,80.02
2018-05-13T05:39:49.718Z,78.99
2018-05-13T05:42:17.970Z,79.25
2018-05-13T05:44:46.213Z,79.79
2018-05-13T05:47:14.496Z,80.68
2018-05-13T05:49:42.765Z,81.37
2018-05-13T05:52:11.870Z,81.76
2018-05-13T05:54:40.136Z,81.69
2018-05-13T05:57:09.149Z,82.08
2018-05-13T05:59:37.421Z,83.03
2018-05-13T06:02:05.690Z,82.58
2018-05-13T06:04:33.941Z,81.20
2018-05-13T06:07:03.060Z,80.97
2018-05-13T06:09:31.329Z,80.95
2018-05-13T06:12:00.437Z,80.57
2018-05-13T06:14:28.690Z,80.40
2018-05-13T06:16:57.804Z,81.86
2018-05-13T06:19:26.057Z,83.43
2018-05-13T06:21:55.233Z,84.54
2018-05-13T06:24:23.460Z,84.68
2018-05-13T06:26:51.732Z,83.20
2018-05-13T06:29:19.997Z,81.84
2018-05-13T06:31:49.044Z,80.82
2018-05-13T06:34:17.304Z,80.27
2018-05-13T06:36:45.571Z,78.97
2018-05-13T06:39:13.841Z,78.73
2018-05-13T06:41:42.096Z,77.81
2018-05-13T06:44:10.357Z,77.26
2018-05-13T06:46:39.409Z,76.81
2018-05-13T06:49:07.748Z,77.10
2018-05-13T06:51:36.024Z,76.35
2018-05-13T06:54:04.292Z,74.77
2018-05-13T06:56:33.324Z,73.99
2018-05-13T06:59:01.573Z,75.07
2018-05-13T07:01:29.857Z,74.04
2018-05-13T07:03:58.101Z,73.83
2018-05-13T07:06:27.220Z,73.72
2018-05-13T07:08:55.484Z,73.15
2018-05-13T07:11:24.506Z,72.96
2018-05-13T07:13:52.783Z,72.73
2018-05-13T07:16:21.089Z,72.05
2018-05-13T07:18:49.335Z,71.59
2018-05-13T07:21:17.611Z,71.21
2018-05-13T07:23:45.870Z,71.05
2018-05-13T07:26:14.124Z,70.65
2018-05-13T07:28:43.156Z,69.83
2018-05-13T07:31:11.547Z,68.36
2018-05-13T07:33:39.812Z,67.91
2018-05-13T07:36:08.085Z,67.48
2018-05-13T07:38:36.352Z,67.95
2018-05-13T07:41:05.625Z,67.40
2018-05-13T07:43:34.750Z,66.46
2018-05-13T07:46:03.022Z,66.83
2018-05-13T07:48:31.268Z,67.96
2018-05-13T07:50:59.616Z,67.76
2018-05-13T07:53:27.866Z,67.28
2018-05-13T07:55:56.127Z,66.86
2018-05-13T07:58:24.411Z,66.38
2018-05-13T08:00:52.681Z,64.99
2018-05-13T08:03:20.948Z,64.84
2018-05-13T08:05:50.069Z,65.64
2018-05-13T08:08:18.326Z,64.70
2018-05-13T08:10:46.572Z,66.21
2018-05-13T08:13:14.896Z,65.47
2018-05-13T08:15:43.178Z,64.73
2018-05-13T08:18:11.432Z,63.18
2018-05-13T08:20:39.705Z,63.65
2018-05-13T08:23:08.732Z,64.26
2018-05-13T08:25:37.092Z,62.99
2018-05-13T08:28:05.337Z,61.82
2018-05-13T08:30:34.456Z,62.21
2018-05-13T08:33:02.704Z,62.52
2018-05-13T08:35:31.836Z,62.05
2018-05-13T08:38:00.094Z,61.82
2018-05-13T08:40:29.129Z,61.36
2018-05-13T08:42:57.473Z,60.68
2018-05-13T08:45:25.744Z,61.01
2018-05-13T08:47:54.026Z,61.57
2018-05-13T08:50:22.283Z,61.46
2018-05-13T08:52:51.304Z,60.71
2018-05-13T08:55:19.552Z,60.67
2018-05-13T08:57:47.848Z,60.11
2018-05-13T09:00:16.124Z,59.76
2018-05-13T09:02:44.400Z,61.68
2018-05-13T09:05:12.653Z,61.57
2018-05-13T09:07:41.773Z,61.74
2018-05-13T09:10:10.020Z,61.76
2018-05-13T09:12:39.045Z,61.13
2018-05-13T09:15:07.320Z,62.33
2018-05-13T09:17:35.578Z,62.31
2018-05-13T09:20:04.593Z,61.86
2018-05-13T09:22:32.861Z,61.14
2018-05-13T09:25:01.121Z,62.84
2018-05-13T09:27:30.161Z,61.88
2018-05-13T09:29:58.423Z,60.58
2018-05-13T09:32:26.672Z,60.60
2018-05-13T09:34:55.686Z,61.28
2018-05-13T09:37:23.969Z,62.41
2018-05-13T09:39:52.247Z,59.89
2018-05-13T09:42:20.513Z,59.78
2018-05-13T09:44:48.885Z,60.54
2018-05-13T09:47:17.136Z,59.10
2018-05-13T09:49:45.389Z,58.74
2018-05-13T09:52:13.723Z,60.77
2018-05-13T09:54:41.976Z,58.02
2018-05-13T09:57:11.089Z,57.99
2018-05-13T09:59:39.365Z,57.07
2018-05-13T10:02:07.613Z,56.41
2018-05-13T10:04:36.633Z,56.67
2018-05-13T10:07:04.897Z,54.83
2018-05-13T10:09:34.473Z,55.75
2018-05-13T10:12:02.709Z,54.83
2018-05-13T10:14:31.068Z,54.82
2018-05-13T10:16:59.329Z,52.68
2018-05-13T10:19:28.537Z,53.32
2018-05-13T10:21:56.720Z,52.11
2018-05-13T10:24:24.995Z,52.56
2018-05-13T10:26:53.236Z,53.26
2018-05-13T10:29:22.269Z,53.70
2018-05-13T10:31:50.550Z,54.01
2018-05-13T10:34:18.816Z,53.41
2018-05-13T10:36:47.080Z,52.25
2018-05-13T10:39:16.188Z,50.98
2018-05-13T10:41:44.448Z,52.58
2018-05-13T10:44:13.809Z,51.63
2018-05-13T10:46:42.153Z,51.01
2018-05-13T10:49:10.415Z,49.93
2018-05-13T10:51:38.713Z,49.99
2018-05-13T10:54:06.961Z,49.63
2018-05-13T10:56:36.069Z,49.08
2018-05-13T10:59:04.345Z,48.69
2018-05-13T11:01:32.592Z,49.54
2018-05-13T11:04:01.717Z,49.15
2018-05-13T11:06:29.995Z,49.10
2018-05-13T11:08:58.269Z,48.79
2018-05-13T11:11:26.536Z,47.28
2018-05-13T11:13:55.551Z,46.55
2018-05-13T11:16:23.807Z,47.18
2018-05-13T11:18:52.173Z,47.81
2018-05-13T11:21:21.197Z,48.29
2018-05-13T11:23:49.444Z,47.84
2018-05-13T11:26:18.473Z,47.68
2018-05-13T11:28:47.657Z,47.44
2018-05-13T11:31:15.917Z,48.25
2018-05-13T11:33:45.045Z,47.55
2018-05-13T11:36:13.229Z,46.97
2018-05-13T11:38:41.577Z,47.25
2018-05-13T11:41:09.857Z,49.04
2018-05-13T11:43:38.105Z,51.15
2018-05-13T11:46:07.229Z,50.95
2018-05-13T11:48:35.497Z,51.18
2018-05-13T11:51:03.785Z,50.04
2018-05-13T11:53:32.096Z,50.12
2018-05-13T11:56:00.353Z,48.95
2018-05-13T11:58:28.612Z,48.98
2018-05-13T12:00:56.867Z,49.86
2018-05-13T12:03:25.896Z,49.70
2018-05-13T12:05:54.157Z,50.67
2018-05-13T12:08:22.418Z,51.65
2018-05-13T12:10:51.463Z,55.85
2018-05-13T12:13:19.715Z,59.35
2018-05-13T12:15:47.965Z,62.85
2018-05-13T12:18:16.993Z,64.06
2018-05-13T12:20:45.241Z,65.52
2018-05-13T12:23:13.524Z,65.29
2018-05-13T12:25:41.849Z,66.04
2018-05-13T12:28:10.068Z,66.08
2018-05-13T12:30:38.356Z,66.28
2018-05-13T12:33:06.631Z,66.35
2018-05-13T12:35:34.886Z,67.45
2018-05-13T12:38:04.006Z,69.97
2018-05-13T12:40:32.262Z,71.93
2018-05-13T12:43:01.370Z,77.28
2018-05-13T12:45:29.651Z,85.33
2018-05-13T12:47:57.920Z,93.42
2018-05-13T12:50:26.206Z,100.00
2018-05-13T12:52:54.466Z,100.00
2018-05-13T12:55:23.572Z,100.00
2018-05-13T12:57:51.833Z,100.00
2018-05-13T13:00:20.864Z,100.00
2018-05-13T13:02:49.141Z,100.00
2018-05-13T13:05:17.400Z,100.00
2018-05-13T13:07:45.675Z,98.95
2018-05-13T13:10:14.775Z,98.13
2018-05-13T13:12:43.024Z,97.70
2018-05-13T13:15:12.188Z,99.20
2018-05-13T13:17:40.412Z,99.55
2018-05-13T13:20:08.811Z,99.24
2018-05-13T13:22:36.936Z,99.97
2018-05-13T13:25:05.977Z,100.00
2018-05-13T13:27:34.237Z,100.00
2018-05-13T13:30:02.519Z,100.00
2018-05-13T13:32:30.804Z,100.00
2018-05-13T13:34:59.061Z,100.00
2018-05-13T13:37:27.314Z,100.00
2018-05-13T13:39:56.368Z,100.00
2018-05-13T13:42:24.713Z,100.00
2018-05-13T13:44:52.972Z,100.00
2018-05-13T13:47:22.058Z,100.00
2018-05-13T13:49:50.274Z,100.00
2018-05-13T13:52:18.524Z,100.00
2018-05-13T13:54:46.813Z,100.00
2018-05-13T13:57:15.087Z,100.00
2018-05-13T13:59:43.338Z,100.00
2018-05-13T14:02:12.457Z,100.00
2018-05-13T14:04:40.716Z,100.00
2018-05-13T14:07:09.732Z,100.00
2018-05-13T14:09:38.013Z,100.00
2018-05-13T14:12:06.299Z,100.00
2018-05-13T14:14:34.662Z,100.00
2018-05-13T14:17:02.937Z,99.90
2018-05-13T14:19:31.201Z,100.00
2018-05-13T14:22:00.224Z,100.00
2018-05-13T14:24:28.489Z,98.82
2018-05-13T14:26:56.796Z,97.67
2018-05-13T14:29:25.021Z,96.55
2018-05-13T14:31:54.067Z,95.41
2018-05-13T14:34:22.317Z,94.34
2018-05-13T14:36:50.572Z,90.98
2018-05-13T14:39:18.860Z,91.31
2018-05-13T14:41:47.137Z,93.11
2018-05-13T14:44:15.389Z,91.84
2018-05-13T14:46:44.429Z,91.90
2018-05-13T14:49:12.677Z,92.03
2018-05-13T14:51:40.922Z,90.35
2018-05-13T14:54:09.242Z,89.49
2018-05-13T14:56:37.514Z,87.97
2018-05-13T14:59:05.782Z,89.02
2018-05-13T15:01:34.048Z,92.65
2018-05-13T15:04:03.158Z,92.08
2018-05-13T15:06:31.449Z,91.55
2018-05-13T15:08:59.785Z,91.92
2018-05-13T15:11:28.929Z,92.23
2018-05-13T15:13:57.295Z,93.07
2018-05-13T15:16:25.698Z,92.52
2018-05-13T15:18:54.058Z,92.32
2018-05-13T15:21:22.363Z,91.28
2018-05-13T15:23:50.631Z,92.26
2018-05-13T15:26:18.904Z,92.39
2018-05-13T15:28:47.265Z,92.88
2018-05-13T15:31:15.605Z,92.55
2018-05-13T15:33:44.738Z,92.00
2018-05-13T15:36:13.182Z,91.67
2018-05-13T15:38:41.489Z,93.00
2018-05-13T15:41:09.751Z,94.65
2018-05-13T15:43:38.004Z,95.42
2018-05-13T15:46:06.305Z,96.34
2018-05-13T15:48:34.601Z,96.51
2018-05-13T15:51:02.961Z,98.37
2018-05-13T15:53:31.302Z,97.62
2018-05-13T15:55:59.666Z,100.00
2018-05-13T15:58:27.929Z,100.00
2018-05-13T16:00:56.226Z,100.00
2018-05-13T16:03:24.533Z,100.00
2018-05-13T16:05:53.673Z,100.00
2018-05-13T16:08:21.951Z,100.00
2018-05-13T16:10:50.333Z,100.00
2018-05-13T16:13:18.605Z,100.00
2018-05-13T16:15:46.986Z,100.00
2018-05-13T16:18:15.253Z,100.00
2018-05-13T16:20:43.509Z,100.00
2018-05-13T16:23:11.940Z,100.00
2018-05-13T16:25:40.240Z,100.00
2018-05-13T16:28:09.373Z,100.00
2018-05-13T16:30:37.750Z,100.00
2018-05-13T16:33:06.031Z,100.00
2018-05-13T16:35:34.375Z,100.00
2018-05-13T16:38:03.509Z,100.00
2018-05-13T16:40:31.804Z,100.00
2018-05-13T16:43:00.471Z,100.00
2018-05-13T16:45:28.947Z,100.00
2018-05-13T16:47:57.253Z,100.00
2018-05-13T16:50:25.610Z,100.00
2018-05-13T16:52:54.396Z,100.00
2018-05-13T16:55:24.151Z,100.00
2018-05-13T16:57:52.789Z,100.00
2018-05-13T17:00:21.577Z,100.00
2018-05-13T17:02:50.466Z,100.00
2018-05-13T17:05:19.356Z,100.00
2018-05-13T17:07:48.458Z,100.00
2018-05-13T17:10:16.775Z,100.00
2018-05-13T17:12:45.124Z,100.00
2018-05-13T17:15:15.026Z,100.00
2018-05-13T17:17:45.339Z,100.00
2018-05-13T17:20:15.038Z,100.00
2018-05-13T17:22:44.703Z,100.00
2018-05-13T17:25:14.604Z,100.00
2018-05-13T17:27:44.276Z,100.00
2018-05-13T17:30:14.983Z,100.00
2018-05-13T17:32:44.819Z,100.00
2018-05-13T17:35:14.802Z,100.00
2018-05-13T17:37:44.756Z,100.00
2018-05-13T17:40:15.695Z,100.00
2018-05-13T17:42:46.333Z,100.00
2018-05-13T17:45:17.055Z,100.00
2018-05-13T17:47:46.996Z,100.00
2018-05-13T17:50:17.192Z,100.00
2018-05-13T17:52:47.792Z,100.00
2018-05-13T17:55:18.307Z,100.00
2018-05-13T17:57:48.178Z,100.00
2018-05-13T18:00:18.879Z,100.00
2018-05-13T18:02:48.570Z,100.00
2018-05-13T18:05:19.436Z,100.00
2018-05-13T18:07:49.251Z,100.00
2018-05-13T18:10:19.158Z,100.00
2018-05-13T18:12:49.408Z,100.00
2018-05-13T18:15:20.190Z,100.00
2018-05-13T18:17:49.862Z,100.00
2018-05-13T18:20:20.625Z,100.00
2018-05-13T18:22:50.433Z,100.00
2018-05-13T18:25:20.330Z,100.00
2018-05-13T18:27:50.524Z,100.00
2018-05-13T18:30:21.381Z,98.99
2018-05-13T18:32:51.999Z,99.06
2018-05-13T18:35:22.609Z,98.70
2018-05-13T18:37:52.787Z,98.59
2018-05-13T18:40:22.650Z,98.30
2018-05-13T18:42:52.690Z,98.54
2018-05-13T18:45:24.165Z,99.34
2018-05-13T18:47:54.652Z,99.02
2018-05-13T18:50:24.546Z,98.80
2018-05-13T18:52:54.349Z,99.08
2018-05-13T18:55:24.223Z,99.20
2018-05-13T18:57:54.217Z,98.96
2018-05-13T19:00:24.967Z,98.90
2018-05-13T19:02:55.600Z,98.54
2018-05-13T19:05:25.485Z,97.80
2018-05-13T19:07:56.514Z,97.26
2018-05-13T19:10:26.416Z,97.17
2018-05-13T19:12:56.362Z,97.38
2018-05-13T19:15:27.290Z,97.63
2018-05-13T19:17:57.924Z,98.04
2018-05-13T19:20:28.601Z,99.64
2018-05-13T19:22:58.386Z,99.73
2018-05-13T19:25:28.996Z,99.50
2018-05-13T19:27:58.960Z,98.46
2018-05-13T19:30:28.942Z,97.97
2018-05-13T19:32:59.693Z,97.98
2018-05-13T19:35:29.634Z,97.91
2018-05-13T19:37:59.568Z,97.53
2018-05-13T19:40:29.466Z,97.37
2018-05-13T19:42:59.629Z,97.36
2018-05-13T19:45:30.731Z,97.10
2018-05-13T19:48:00.616Z,96.94
2018-05-13T19:50:30.707Z,96.98
2018-05-13T19:53:00.485Z,96.74
2018-05-13T19:55:30.423Z,96.35
2018-05-13T19:58:01.147Z,96.26
2018-05-13T20:00:31.894Z,96.25
2018-05-13T20:03:02.043Z,95.93
2018-05-13T20:05:32.930Z,96.20
2018-05-13T20:08:02.780Z,97.01
2018-05-13T20:10:33.514Z,96.67
2018-05-13T20:13:03.955Z,97.57
2018-05-13T20:15:34.778Z,98.59
2018-05-13T20:18:05.475Z,98.61
2018-05-13T20:20:35.457Z,98.41
2018-05-13T20:23:22.732Z,98.92
2018-05-13T20:25:53.486Z,99.09
2018-05-13T20:28:24.043Z,99.25
2018-05-13T20:30:54.105Z,100.00
2018-05-13T20:33:24.039Z,100.00
2018-05-13T20:35:54.009Z,100.00
2018-05-13T20:38:23.885Z,100.00
2018-05-13T20:40:54.724Z,100.00
2018-05-13T20:43:25.455Z,100.00
2018-05-13T20:45:56.079Z,100.00
2018-05-13T20:48:26.586Z,100.00
2018-05-13T20:50:56.546Z,100.00
2018-05-13T20:53:26.501Z,100.00
2018-05-13T20:55:56.394Z,100.00
2018-05-13T20:58:26.449Z,100.00
2018-05-13T21:00:56.375Z,99.76
2018-05-13T21:03:25.978Z,99.19
2018-05-13T21:05:55.830Z,99.18
2018-05-13T21:08:25.606Z,99.16
2018-05-13T21:10:55.442Z,98.47
2018-05-13T21:13:26.157Z,98.92
2018-05-13T21:15:57.893Z,99.03
2018-05-13T21:18:27.413Z,99.40
2018-05-13T21:20:56.006Z,99.99
2018-05-13T21:23:24.442Z,99.78
2018-05-13T21:25:53.522Z,99.66
2018-05-13T21:28:21.869Z,99.07
2018-05-13T21:30:50.140Z,99.29
2018-05-13T21:33:18.565Z,99.85
2018-05-13T21:35:46.847Z,100.00
2018-05-13T21:38:15.131Z,100.00
2018-05-13T21:40:43.449Z,100.00
2018-05-13T21:43:11.728Z,100.00
2018-05-13T21:45:40.001Z,99.86
2018-05-13T21:48:08.280Z,99.11
2018-05-13T21:50:36.541Z,99.09
2018-05-13T21:53:05.665Z,99.10
2018-05-13T21:55:33.916Z,98.83
2018-05-13T21:58:02.323Z,99.19
2018-05-13T22:00:30.614Z,99.36
2018-05-13T22:02:58.961Z,100.00
2018-05-13T22:05:27.230Z,100.00
2018-05-13T22:07:55.506Z,100.00
2018-05-13T22:10:23.774Z,100.00
2018-05-13T22:12:52.797Z,100.00
2018-05-13T22:15:21.073Z,100.00
2018-05-13T22:17:49.367Z,100.00
2018-05-13T22:20:17.637Z,100.00
2018-05-13T22:22:45.995Z,100.00
2018-05-13T22:25:14.257Z,100.00
2018-05-13T22:27:42.521Z,100.00
2018-05-13T22:30:11.644Z,100.00
2018-05-13T22:32:39.912Z,100.00
2018-05-13T22:35:08.176Z,100.00
2018-05-13T22:37:37.227Z,100.00
2018-05-13T22:40:05.495Z,100.00
2018-05-13T22:42:33.753Z,100.00
2018-05-13T22:45:02.217Z,100.00
2018-05-13T22:47:30.484Z,100.00
2018-05-13T22:49:58.681Z,100.00
2018-05-13T22:52:27.119Z,100.00
2018-05-13T22:54:55.343Z,100.00
2018-05-13T22:57:23.613Z,100.00
2018-05-13T22:59:51.890Z,100.00
2018-05-13T23:02:20.148Z,100.00
2018-05-13T23:04:48.417Z,100.00
2018-05-13T23:07:16.700Z,100.00
2018-05-13T23:09:44.968Z,100.00
2018-05-13T23:12:13.993Z,100.00
2018-05-13T23:14:42.357Z,100.00
2018-05-13T23:17:10.607Z,100.00
2018-05-13T23:19:39.734Z,100.00
2018-05-13T23:22:08.021Z,100.00
2018-05-13T23:24:36.377Z,100.00
2018-05-13T23:27:04.677Z,100.00
2018-05-13T23:29:32.944Z,100.00
2018-05-13T23:32:01.316Z,100.00
2018-05-13T23:34:29.656Z,100.00
2018-05-13T23:36:57.869Z,100.00
2018-05-13T23:39:27.054Z,100.00
2018-05-13T23:41:56.118Z,100.00
2018-05-13T23:44:24.381Z,100.00
2018-05-13T23:46:52.792Z,100.00
2018-05-13T23:49:21.822Z,100.00
2018-05-13T23:51:50.099Z,100.00
2018-05-13T23:54:18.361Z,100.00
2018-05-13T23:56:46.625Z,100.00
2018-05-13T23:59:14.900Z,100.00
